METAR Data
IDs: Format: Raw Decoded Include TAF

Data at: 1957 UTC 17 Nov 2019

KFAM 161856Z AUTO 00000KT 10SM CLR 09/01 A3024 RMK AO2 SLP256 T00940011
KFAM 161756Z AUTO 00000KT 10SM CLR 08/01 A3028 RMK AO2 SLP269 T00780006 10078 21061 58020
KFAM 161656Z AUTO 11004KT 9SM CLR 06/00 A3031 RMK AO2 SLP283 T00610000
KFAM 161556Z AUTO VRB03KT 8SM CLR 03/M01 A3033 RMK AO2 SLP291 T00331011
KFAM 161456Z AUTO VRB03KT 8SM CLR 01/M02 A3034 RMK AO2 SLP293 T00111022 58001 FZRANO
KFAM 161356Z AUTO 00000KT 9SM CLR M01/M03 A3035 RMK AO2 SLP298 T10061033 FZRANO
KFAM 161256Z AUTO 00000KT 8SM CLR M06/M07 A3034 RMK AO2 SLP296 T10611072 FZRANO
KFAM 161156Z AUTO 00000KT 10SM CLR M06/M08 A3034 RMK AO2 SLP296 T10611078 11033 21061 53005 FZRANO
KFAM 161056Z AUTO 00000KT 9SM CLR M06/M08 A3033 RMK AO2 SLP294 T10611078 FZRANO
KFAM 160956Z AUTO 00000KT 9SM CLR M04/M06 A3032 RMK AO2 SLP288 T10441061 FZRANO
KFAM 160856Z AUTO 00000KT 10SM CLR M04/M06 A3032 RMK AO2 SLP286 T10441061 57006 FZRANO